createdAt,value
2018-05-07T00:00:04.970Z,18.78
2018-05-07T00:00:31.107Z,18.81
2018-05-07T00:00:57.245Z,18.81
2018-05-07T00:01:23.398Z,18.78
2018-05-07T00:01:49.560Z,18.81
2018-05-07T00:02:15.707Z,18.73
2018-05-07T00:02:41.867Z,18.75
2018-05-07T00:03:08.003Z,18.78
2018-05-07T00:03:34.145Z,18.71
2018-05-07T00:04:00.300Z,18.74
2018-05-07T00:04:26.443Z,18.7
2018-05-07T00:04:52.584Z,18.7
2018-05-07T00:05:18.744Z,18.75
2018-05-07T00:05:44.952Z,18.75
2018-05-07T00:06:11.062Z,18.81
2018-05-07T00:06:37.219Z,18.81
2018-05-07T00:07:03.359Z,18.78
2018-05-07T00:07:29.508Z,18.73
2018-05-07T00:07:55.642Z,18.78
2018-05-07T00:08:21.784Z,18.89
2018-05-07T00:08:47.930Z,18.81
2018-05-07T00:09:14.083Z,18.83
2018-05-07T00:09:40.253Z,18.68
2018-05-07T00:10:06.391Z,18.62
2018-05-07T00:10:32.529Z,18.68
2018-05-07T00:10:58.688Z,18.68
2018-05-07T00:11:24.831Z,18.65
2018-05-07T00:11:50.982Z,18.58
2018-05-07T00:12:17.176Z,18.7
2018-05-07T00:12:43.310Z,18.68
2018-05-07T00:13:09.455Z,18.68
2018-05-07T00:13:35.595Z,18.65
2018-05-07T00:14:01.774Z,18.53
2018-05-07T00:14:27.962Z,18.53
2018-05-07T00:14:54.099Z,18.52
2018-05-07T00:15:20.257Z,18.45
2018-05-07T00:15:46.401Z,18.41
2018-05-07T00:16:12.550Z,18.49
2018-05-07T00:16:38.697Z,18.44
2018-05-07T00:17:04.846Z,18.41
2018-05-07T00:17:30.977Z,18.41
2018-05-07T00:17:57.114Z,18.43
2018-05-07T00:18:23.288Z,18.34
2018-05-07T00:18:49.398Z,18.29
2018-05-07T00:19:15.536Z,18.34
2018-05-07T00:19:41.678Z,18.29
2018-05-07T00:20:07.833Z,18.2
2018-05-07T00:20:34.052Z,18.11
2018-05-07T00:21:00.112Z,18.2
2018-05-07T00:21:26.253Z,18.11
2018-05-07T00:21:52.395Z,18.15
2018-05-07T00:22:18.559Z,18.1
2018-05-07T00:22:44.696Z,18.15
2018-05-07T00:23:10.842Z,18.25
2018-05-07T00:23:37.003Z,18.25
2018-05-07T00:24:03.157Z,18.2
2018-05-07T00:24:29.315Z,18.26
2018-05-07T00:24:55.483Z,18.07
2018-05-07T00:25:21.622Z,18.22
2018-05-07T00:25:47.788Z,18.13
2018-05-07T00:26:13.928Z,18.16
2018-05-07T00:26:40.198Z,18.2
2018-05-07T00:27:06.262Z,18.19
2018-05-07T00:27:32.395Z,18.18
2018-05-07T00:27:58.538Z,18.2
2018-05-07T00:28:24.687Z,18.16
2018-05-07T00:28:50.815Z,18.13
2018-05-07T00:29:16.960Z,18.19
2018-05-07T00:29:43.125Z,18.16
2018-05-07T00:30:09.262Z,18.18
2018-05-07T00:30:35.398Z,18.15
2018-05-07T00:31:01.532Z,18.07
2018-05-07T00:31:27.678Z,18.1
2018-05-07T00:31:53.835Z,18.19
2018-05-07T00:32:19.972Z,18.13
2018-05-07T00:32:46.132Z,18.28
2018-05-07T00:33:12.343Z,18.2
2018-05-07T00:33:38.438Z,18.23
2018-05-07T00:34:04.573Z,18.18
2018-05-07T00:34:30.714Z,18.28
2018-05-07T00:34:56.901Z,18.26
2018-05-07T00:35:23.029Z,18.22
2018-05-07T00:35:49.187Z,18.29
2018-05-07T00:36:15.326Z,18.26
2018-05-07T00:36:41.463Z,18.33
2018-05-07T00:37:07.611Z,18.31
2018-05-07T00:37:33.742Z,18.34
2018-05-07T00:37:59.875Z,18.31
2018-05-07T00:38:26.015Z,18.25
2018-05-07T00:38:52.158Z,18.28
2018-05-07T00:39:18.319Z,18.25
2018-05-07T00:39:44.455Z,18.19
2018-05-07T00:40:10.625Z,18.13
2018-05-07T00:40:36.791Z,18.2
2018-05-07T00:41:02.935Z,18.16
2018-05-07T00:41:29.067Z,18.11
2018-05-07T00:41:55.203Z,18.1
2018-05-07T00:42:21.335Z,18.03
2018-05-07T00:42:47.473Z,18.03
2018-05-07T00:43:13.621Z,18.05
2018-05-07T00:43:39.747Z,18.03
2018-05-07T00:44:05.915Z,18.04
2018-05-07T00:44:32.057Z,18.1
2018-05-07T00:45:01.233Z,18.08
2018-05-07T00:45:27.396Z,18.08
2018-05-07T00:45:53.542Z,18.08
2018-05-07T00:46:19.678Z,18.13
2018-05-07T00:46:45.814Z,18.18
2018-05-07T00:47:11.950Z,18.13
2018-05-07T00:47:38.084Z,18.22
2018-05-07T00:48:04.229Z,18.11
2018-05-07T00:48:30.374Z,18.11
2018-05-07T00:48:56.504Z,18.1
2018-05-07T00:49:22.669Z,18.16
2018-05-07T00:49:48.804Z,18.16
2018-05-07T00:50:14.943Z,18.15
2018-05-07T00:50:41.085Z,18.11
2018-05-07T00:51:07.222Z,18.07
2018-05-07T00:51:33.394Z,17.98
2018-05-07T00:51:59.531Z,17.97
2018-05-07T00:52:25.699Z,17.98
2018-05-07T00:52:51.862Z,17.97
2018-05-07T00:53:18.007Z,17.9
2018-05-07T00:53:44.141Z,17.83
2018-05-07T00:54:10.280Z,17.83
2018-05-07T00:54:36.423Z,17.79
2018-05-07T00:55:02.561Z,17.78
2018-05-07T00:55:28.700Z,17.76
2018-05-07T00:55:54.837Z,17.85
2018-05-07T00:56:20.981Z,17.78
2018-05-07T00:56:47.123Z,17.71
2018-05-07T00:57:13.250Z,17.65
2018-05-07T00:57:39.420Z,17.57
2018-05-07T00:58:05.595Z,17.49
2018-05-07T00:58:31.729Z,17.54
2018-05-07T00:58:57.871Z,17.51
2018-05-07T00:59:24.011Z,17.52
2018-05-07T00:59:50.170Z,17.48
2018-05-07T01:00:16.309Z,17.51
2018-05-07T01:00:42.477Z,17.51
2018-05-07T01:01:08.619Z,17.41
2018-05-07T01:01:34.759Z,17.54
2018-05-07T01:02:00.894Z,17.45
2018-05-07T01:02:27.057Z,17.45
2018-05-07T01:02:53.203Z,17.63
2018-05-07T01:03:19.342Z,17.6
2018-05-07T01:03:45.490Z,17.45
2018-05-07T01:04:37.768Z,17.46
2018-05-07T01:05:03.899Z,17.49
2018-05-07T01:05:30.040Z,17.54
2018-05-07T01:05:56.209Z,17.45
2018-05-07T01:06:22.371Z,17.49
2018-05-07T01:06:48.519Z,17.39
2018-05-07T01:07:14.653Z,17.49
2018-05-07T01:07:40.800Z,17.39
2018-05-07T01:08:06.929Z,17.48
2018-05-07T01:08:33.102Z,17.48
2018-05-07T01:08:59.231Z,17.38
2018-05-07T01:09:25.370Z,17.46
2018-05-07T01:09:51.503Z,17.44
2018-05-07T01:10:17.642Z,17.48
2018-05-07T01:10:43.778Z,17.52
2018-05-07T01:11:09.923Z,17.48
2018-05-07T01:11:36.062Z,17.44
2018-05-07T01:12:02.199Z,17.51
2018-05-07T01:12:28.332Z,17.45
2018-05-07T01:12:54.472Z,17.42
2018-05-07T01:13:20.642Z,17.33
2018-05-07T01:13:46.773Z,17.46
2018-05-07T01:14:12.916Z,17.36
2018-05-07T01:14:39.062Z,17.41
2018-05-07T01:15:05.202Z,17.38
2018-05-07T01:15:31.382Z,17.31
2018-05-07T01:15:57.538Z,17.36
2018-05-07T01:16:23.687Z,17.36
2018-05-07T01:16:49.828Z,17.42
2018-05-07T01:17:15.967Z,17.41
2018-05-07T01:17:42.105Z,17.31
2018-05-07T01:18:08.262Z,17.38
2018-05-07T01:18:34.405Z,17.38
2018-05-07T01:19:00.541Z,17.33
2018-05-07T01:19:26.684Z,17.31
2018-05-07T01:19:52.818Z,17.27
2018-05-07T01:20:18.958Z,17.26
2018-05-07T01:20:45.098Z,17.24
2018-05-07T01:21:11.269Z,17.29
2018-05-07T01:21:37.399Z,17.15
2018-05-07T01:22:03.573Z,17.2
2018-05-07T01:22:29.707Z,17.29
2018-05-07T01:22:55.847Z,17.22
2018-05-07T01:23:21.986Z,17.24
2018-05-07T01:23:48.146Z,17.22
2018-05-07T01:24:14.293Z,17.09
2018-05-07T01:24:40.434Z,17.06
2018-05-07T01:25:06.617Z,17.02
2018-05-07T01:25:32.759Z,17.06
2018-05-07T01:25:58.893Z,16.99
2018-05-07T01:26:25.033Z,16.97
2018-05-07T01:26:51.206Z,17.06
2018-05-07T01:27:17.338Z,16.96
2018-05-07T01:27:43.525Z,17.04
2018-05-07T01:28:09.679Z,17.04
2018-05-07T01:28:35.820Z,16.99
2018-05-07T01:29:01.960Z,17.02
2018-05-07T01:29:28.098Z,16.96
2018-05-07T01:29:54.242Z,16.84
2018-05-07T01:30:20.422Z,16.99
2018-05-07T01:30:46.586Z,16.84
2018-05-07T01:31:12.730Z,16.9
2018-05-07T01:31:38.871Z,16.91
2018-05-07T01:32:05.000Z,16.91
2018-05-07T01:32:31.138Z,16.87
2018-05-07T01:32:57.286Z,16.94
2018-05-07T01:33:23.437Z,16.91
2018-05-07T01:33:49.576Z,16.87
2018-05-07T01:34:15.736Z,16.79
2018-05-07T01:34:41.877Z,16.9
2018-05-07T01:35:08.021Z,16.84
2018-05-07T01:35:34.156Z,16.91
2018-05-07T01:36:00.299Z,16.83
2018-05-07T01:36:26.452Z,16.87
2018-05-07T01:36:52.620Z,16.81
2018-05-07T01:37:18.762Z,16.87
2018-05-07T01:37:44.898Z,16.87
2018-05-07T01:38:11.043Z,16.84
2018-05-07T01:38:37.179Z,16.84
2018-05-07T01:39:03.314Z,16.86
2018-05-07T01:39:29.454Z,16.87
2018-05-07T01:39:55.599Z,16.86
2018-05-07T01:40:21.733Z,16.84
2018-05-07T01:40:47.882Z,16.9
2018-05-07T01:41:14.018Z,16.94
2018-05-07T01:41:40.151Z,16.87
2018-05-07T01:42:06.291Z,16.99
2018-05-07T01:42:32.431Z,16.99
2018-05-07T01:42:58.568Z,16.97
2018-05-07T01:43:24.710Z,16.84
2018-05-07T01:43:50.844Z,16.94
2018-05-07T01:44:17.004Z,16.97
2018-05-07T01:44:43.144Z,16.94
2018-05-07T01:45:09.283Z,16.86
2018-05-07T01:45:35.452Z,16.93
2018-05-07T01:46:01.589Z,16.93
2018-05-07T01:46:27.731Z,16.9
2018-05-07T01:46:53.865Z,16.86
2018-05-07T01:47:20.008Z,16.86
2018-05-07T01:47:46.166Z,16.87
2018-05-07T01:48:12.303Z,16.83
2018-05-07T01:48:38.467Z,16.84
2018-05-07T01:49:04.607Z,16.79
2018-05-07T01:49:30.749Z,16.83
2018-05-07T01:49:56.888Z,16.79
2018-05-07T01:50:23.048Z,16.76
2018-05-07T01:50:49.185Z,16.78
2018-05-07T01:51:15.333Z,16.76
2018-05-07T01:51:41.465Z,16.74
2018-05-07T01:52:07.600Z,16.75
2018-05-07T01:52:33.741Z,16.81
2018-05-07T01:52:59.882Z,16.84
2018-05-07T01:53:26.013Z,16.76
2018-05-07T01:53:52.158Z,16.81
2018-05-07T01:54:18.297Z,16.78
2018-05-07T01:54:44.425Z,16.86
2018-05-07T01:55:10.572Z,16.79
2018-05-07T01:55:36.739Z,16.81
2018-05-07T01:56:02.882Z,16.81
2018-05-07T01:56:29.018Z,16.78
2018-05-07T01:56:55.156Z,16.79
2018-05-07T01:57:21.300Z,16.81
2018-05-07T01:57:47.442Z,16.75
2018-05-07T01:58:13.569Z,16.72
2018-05-07T01:58:39.720Z,16.74
2018-05-07T01:59:05.887Z,16.75
2018-05-07T01:59:32.024Z,16.65
2018-05-07T01:59:58.157Z,16.71
2018-05-07T02:00:24.296Z,16.75
2018-05-07T02:00:50.441Z,16.74
2018-05-07T02:01:16.573Z,16.61
2018-05-07T02:01:42.720Z,16.71
2018-05-07T02:02:08.854Z,16.66
2018-05-07T02:02:34.993Z,16.66
2018-05-07T02:03:01.133Z,16.66
2018-05-07T02:03:27.295Z,16.6
2018-05-07T02:03:53.457Z,16.64
2018-05-07T02:04:19.589Z,16.72
2018-05-07T02:04:45.730Z,16.66
2018-05-07T02:05:11.870Z,16.66
2018-05-07T02:05:38.003Z,16.71
2018-05-07T02:06:04.163Z,16.64
2018-05-07T02:06:30.304Z,16.75
2018-05-07T02:06:56.445Z,16.79
2018-05-07T02:07:22.608Z,16.71
2018-05-07T02:07:48.744Z,16.68
2018-05-07T02:08:14.886Z,16.74
2018-05-07T02:08:41.053Z,16.74
2018-05-07T02:09:07.187Z,16.69
2018-05-07T02:09:33.332Z,16.72
2018-05-07T02:09:59.468Z,16.69
2018-05-07T02:10:25.636Z,16.68
2018-05-07T02:10:51.770Z,16.81
2018-05-07T02:11:17.916Z,16.74
2018-05-07T02:11:44.054Z,16.76
2018-05-07T02:12:10.225Z,16.72
2018-05-07T02:12:36.376Z,16.64
2018-05-07T02:13:02.520Z,16.72
2018-05-07T02:13:28.662Z,16.69
2018-05-07T02:13:54.826Z,16.71
2018-05-07T02:14:20.957Z,16.66
2018-05-07T02:14:47.101Z,16.65
2018-05-07T02:15:13.248Z,16.75
2018-05-07T02:15:39.409Z,16.65
2018-05-07T02:16:05.574Z,16.66
2018-05-07T02:16:31.713Z,16.75
2018-05-07T02:16:57.883Z,16.71
2018-05-07T02:17:24.042Z,16.71
2018-05-07T02:17:50.180Z,16.71
2018-05-07T02:18:16.311Z,16.68
2018-05-07T02:18:42.475Z,16.65
2018-05-07T02:19:08.611Z,16.69
2018-05-07T02:19:34.761Z,16.68
2018-05-07T02:20:00.899Z,16.68
2018-05-07T02:20:27.037Z,16.74
2018-05-07T02:20:53.174Z,16.79
2018-05-07T02:21:19.322Z,16.66
2018-05-07T02:21:45.459Z,16.69
2018-05-07T02:22:11.597Z,16.78
2018-05-07T02:22:37.739Z,16.79
2018-05-07T02:23:03.879Z,16.75
2018-05-07T02:23:30.021Z,16.79
2018-05-07T02:23:56.160Z,16.78
2018-05-07T02:24:22.292Z,16.81
2018-05-07T02:24:48.435Z,16.74
2018-05-07T02:25:14.567Z,16.76
2018-05-07T02:25:40.706Z,16.74
2018-05-07T02:26:06.849Z,16.76
2018-05-07T02:26:32.983Z,16.74
2018-05-07T02:26:59.123Z,16.69
2018-05-07T02:27:25.283Z,16.76
2018-05-07T02:27:51.417Z,16.68
2018-05-07T02:28:17.560Z,16.72
2018-05-07T02:28:43.697Z,16.66
2018-05-07T02:29:09.865Z,16.69
2018-05-07T02:29:36.002Z,16.75
2018-05-07T02:30:02.164Z,16.71
2018-05-07T02:30:28.355Z,16.71
2018-05-07T02:30:54.515Z,16.61
2018-05-07T02:31:20.696Z,16.68
2018-05-07T02:31:46.868Z,16.57
2018-05-07T02:32:13.003Z,16.54
2018-05-07T02:32:39.137Z,16.54
2018-05-07T02:33:05.282Z,16.58
2018-05-07T02:33:31.472Z,16.54
2018-05-07T02:33:57.632Z,16.42
2018-05-07T02:34:23.786Z,16.43
2018-05-07T02:34:49.968Z,16.42
2018-05-07T02:35:16.114Z,16.5
2018-05-07T02:35:42.286Z,16.41
2018-05-07T02:36:08.538Z,16.38
2018-05-07T02:36:34.605Z,16.41
2018-05-07T02:37:00.792Z,16.5
2018-05-07T02:37:26.925Z,16.43
2018-05-07T02:37:53.160Z,16.33
2018-05-07T02:38:19.310Z,16.38
2018-05-07T02:38:45.446Z,16.35
2018-05-07T02:39:11.607Z,16.36
2018-05-07T02:39:37.750Z,16.36
2018-05-07T02:40:03.897Z,16.24
2018-05-07T02:40:30.052Z,16.28
2018-05-07T02:40:56.190Z,16.26
2018-05-07T02:41:22.332Z,16.17
2018-05-07T02:41:48.475Z,16.2
2018-05-07T02:42:14.637Z,16.15
2018-05-07T02:42:40.797Z,16.09
2018-05-07T02:43:06.965Z,16.15
2018-05-07T02:43:33.112Z,16.12
2018-05-07T02:43:59.269Z,16.08
2018-05-07T02:44:25.436Z,16.05
2018-05-07T02:44:51.549Z,16
2018-05-07T02:45:17.699Z,16.05
2018-05-07T02:45:43.858Z,15.9
2018-05-07T02:46:10.003Z,16.04
2018-05-07T02:46:36.167Z,15.95
2018-05-07T02:47:02.335Z,15.91
2018-05-07T02:47:28.477Z,15.9
2018-05-07T02:47:54.638Z,15.8
2018-05-07T02:48:20.803Z,15.82
2018-05-07T02:48:46.945Z,15.82
2018-05-07T02:49:13.084Z,15.84
2018-05-07T02:49:39.259Z,15.72
2018-05-07T02:50:05.423Z,15.7
2018-05-07T02:50:31.571Z,15.7
2018-05-07T02:50:57.779Z,15.67
2018-05-07T02:51:23.997Z,15.65
2018-05-07T02:51:50.133Z,15.64
2018-05-07T02:52:16.268Z,15.65
2018-05-07T02:52:42.407Z,15.64
2018-05-07T02:53:08.590Z,15.58
2018-05-07T02:53:34.776Z,15.59
2018-05-07T02:54:00.916Z,15.54
2018-05-07T02:54:27.057Z,15.59
2018-05-07T02:54:53.242Z,15.52
2018-05-07T02:55:19.376Z,15.57
2018-05-07T02:55:45.538Z,15.57
2018-05-07T02:56:11.700Z,15.54
2018-05-07T02:56:37.840Z,15.57
2018-05-07T02:57:03.981Z,15.59
2018-05-07T02:57:30.166Z,15.52
2018-05-07T02:57:56.305Z,15.59
2018-05-07T02:58:22.443Z,15.54
2018-05-07T02:58:48.603Z,15.46
2018-05-07T02:59:14.733Z,15.58
2018-05-07T02:59:40.889Z,15.59
2018-05-07T03:00:07.021Z,15.55
2018-05-07T03:00:33.181Z,15.55
2018-05-07T03:00:59.326Z,15.52
2018-05-07T03:01:25.469Z,15.55
2018-05-07T03:01:51.603Z,15.57
2018-05-07T03:02:17.785Z,15.55
2018-05-07T03:02:43.949Z,15.57
2018-05-07T03:03:10.105Z,15.58
2018-05-07T03:03:36.240Z,15.65
2018-05-07T03:04:02.383Z,15.55
2018-05-07T03:04:28.537Z,15.67
2018-05-07T03:04:54.720Z,15.57
2018-05-07T03:05:20.912Z,15.67
2018-05-07T03:05:47.047Z,15.67
2018-05-07T03:06:13.207Z,15.61
2018-05-07T03:06:39.366Z,15.61
2018-05-07T03:07:05.536Z,15.49
2018-05-07T03:07:31.680Z,15.47
2018-05-07T03:07:57.866Z,15.46
2018-05-07T03:08:24.009Z,15.47
2018-05-07T03:08:50.148Z,15.46
2018-05-07T03:09:16.313Z,15.54
2018-05-07T03:09:42.471Z,15.43
2018-05-07T03:10:08.690Z,15.51
2018-05-07T03:10:34.800Z,15.43
2018-05-07T03:11:00.930Z,15.47
2018-05-07T03:11:27.100Z,15.44
2018-05-07T03:11:53.289Z,15.44
2018-05-07T03:12:19.451Z,15.43
2018-05-07T03:12:45.585Z,15.47
2018-05-07T03:13:11.722Z,15.44
2018-05-07T03:13:37.865Z,15.39
2018-05-07T03:14:04.023Z,15.46
2018-05-07T03:14:30.169Z,15.43
2018-05-07T03:14:56.316Z,15.47
2018-05-07T03:15:22.447Z,15.44
2018-05-07T03:15:48.582Z,15.46
2018-05-07T03:16:14.741Z,15.4
2018-05-07T03:16:40.883Z,15.43
2018-05-07T03:17:07.022Z,15.36
2018-05-07T03:17:33.196Z,15.46
2018-05-07T03:17:59.320Z,15.47
2018-05-07T03:18:25.456Z,15.4
2018-05-07T03:18:51.588Z,15.51
2018-05-07T03:19:17.752Z,15.52
2018-05-07T03:19:43.889Z,15.46
2018-05-07T03:20:10.025Z,15.52
2018-05-07T03:20:36.179Z,15.46
2018-05-07T03:21:02.322Z,15.59
2018-05-07T03:21:28.491Z,15.52
2018-05-07T03:21:54.631Z,15.52
2018-05-07T03:22:20.771Z,15.52
2018-05-07T03:22:46.953Z,15.47
2018-05-07T03:23:13.095Z,15.46
2018-05-07T03:23:39.239Z,15.54
2018-05-07T03:24:05.398Z,15.4
2018-05-07T03:24:31.551Z,15.44
2018-05-07T03:24:57.712Z,15.43
2018-05-07T03:25:23.891Z,15.35
2018-05-07T03:25:50.045Z,15.43
2018-05-07T03:26:16.185Z,15.42
2018-05-07T03:26:42.326Z,15.4
2018-05-07T03:27:08.468Z,15.4
2018-05-07T03:27:34.612Z,15.44
2018-05-07T03:28:00.749Z,15.42
2018-05-07T03:28:26.918Z,15.4
2018-05-07T03:28:53.060Z,15.24
2018-05-07T03:29:19.192Z,15.27
2018-05-07T03:29:45.354Z,15.27
2018-05-07T03:30:11.491Z,15.28
2018-05-07T03:30:37.631Z,15.28
2018-05-07T03:31:03.775Z,15.28
2018-05-07T03:31:29.957Z,15.28
2018-05-07T03:31:56.193Z,15.43
2018-05-07T03:32:22.328Z,15.29
2018-05-07T03:32:48.464Z,15.27
2018-05-07T03:33:14.605Z,15.37
2018-05-07T03:33:40.744Z,15.28
2018-05-07T03:34:06.886Z,15.29
2018-05-07T03:34:33.029Z,15.31
2018-05-07T03:34:59.171Z,15.27
2018-05-07T03:35:25.304Z,15.25
2018-05-07T03:35:51.467Z,15.22
2018-05-07T03:36:17.606Z,15.27
2018-05-07T03:36:43.740Z,15.18
2018-05-07T03:37:09.905Z,15.19
2018-05-07T03:37:36.047Z,15.19
2018-05-07T03:38:02.211Z,15.18
2018-05-07T03:38:28.354Z,15.11
2018-05-07T03:38:54.497Z,15.15
2018-05-07T03:39:20.637Z,15.15
2018-05-07T03:39:46.778Z,15.14
2018-05-07T03:40:12.918Z,15.17
2018-05-07T03:40:39.054Z,15.18
2018-05-07T03:41:05.232Z,15.11
2018-05-07T03:41:31.380Z,15.14
2018-05-07T03:41:57.514Z,15.11
2018-05-07T03:42:23.660Z,15.09
2018-05-07T03:42:49.822Z,15.14
2018-05-07T03:43:15.958Z,15.07
2018-05-07T03:43:42.121Z,15.09
2018-05-07T03:44:08.282Z,15.02
2018-05-07T03:44:34.419Z,15.06
2018-05-07T03:45:00.585Z,15.06
2018-05-07T03:45:26.717Z,15.07
2018-05-07T03:45:52.853Z,15
2018-05-07T03:46:19.016Z,15
2018-05-07T03:46:45.146Z,15.02
2018-05-07T03:47:11.306Z,15.04
2018-05-07T03:47:37.444Z,15
2018-05-07T03:48:03.582Z,15
2018-05-07T03:48:29.723Z,14.96
2018-05-07T03:48:55.858Z,15.02
2018-05-07T03:49:21.995Z,15
2018-05-07T03:49:48.159Z,14.97
2018-05-07T03:50:14.322Z,14.97
2018-05-07T03:50:40.459Z,15.02
2018-05-07T03:51:06.619Z,14.97
2018-05-07T03:51:32.785Z,14.99
2018-05-07T03:51:58.926Z,15
2018-05-07T03:52:25.061Z,15.03
2018-05-07T03:52:51.226Z,14.97
2018-05-07T03:53:17.365Z,15
2018-05-07T03:53:43.524Z,14.99
2018-05-07T03:54:09.655Z,15.04
2018-05-07T03:54:35.821Z,15.03
2018-05-07T03:55:01.985Z,15.03
2018-05-07T03:55:28.146Z,14.96
2018-05-07T03:55:54.310Z,14.99
2018-05-07T03:56:20.456Z,14.96
2018-05-07T03:56:46.591Z,15
2018-05-07T03:57:12.724Z,14.99
2018-05-07T03:57:38.859Z,14.92
2018-05-07T03:58:04.994Z,15
2018-05-07T03:58:31.134Z,15.04
2018-05-07T03:58:57.275Z,14.99
2018-05-07T03:59:23.410Z,15
2018-05-07T03:59:49.553Z,14.94
2018-05-07T04:00:15.691Z,15.04
2018-05-07T04:00:41.835Z,14.96
2018-05-07T04:01:07.972Z,14.97
2018-05-07T04:01:34.106Z,15.03
2018-05-07T04:02:00.244Z,14.99
2018-05-07T04:02:26.380Z,14.89
2018-05-07T04:02:52.523Z,14.89
2018-05-07T04:03:18.657Z,14.96
2018-05-07T04:03:44.801Z,14.94
2018-05-07T04:04:10.937Z,14.92
2018-05-07T04:04:37.073Z,14.94
2018-05-07T04:05:03.220Z,14.85
2018-05-07T04:05:29.352Z,14.84
2018-05-07T04:05:55.495Z,14.78
2018-05-07T04:06:21.634Z,14.91
2018-05-07T04:06:47.774Z,14.94
2018-05-07T04:07:13.985Z,14.88
2018-05-07T04:07:40.051Z,14.89
2018-05-07T04:08:06.184Z,14.88
2018-05-07T04:08:32.325Z,14.94
2018-05-07T04:08:58.464Z,15
2018-05-07T04:09:24.603Z,14.94
2018-05-07T04:09:50.741Z,14.94
2018-05-07T04:10:16.904Z,14.97
2018-05-07T04:10:43.046Z,14.96
2018-05-07T04:11:09.192Z,14.92
2018-05-07T04:11:35.324Z,14.92
2018-05-07T04:12:01.496Z,14.96
2018-05-07T04:12:27.656Z,14.92
2018-05-07T04:12:53.794Z,14.94
2018-05-07T04:13:20.036Z,14.91
2018-05-07T04:13:46.067Z,14.91
2018-05-07T04:14:12.228Z,14.91
2018-05-07T04:14:38.365Z,14.85
2018-05-07T04:15:04.512Z,14.89
2018-05-07T04:15:30.654Z,14.86
2018-05-07T04:15:56.806Z,14.88
2018-05-07T04:16:22.971Z,14.81
2018-05-07T04:16:49.106Z,14.85
2018-05-07T04:17:15.247Z,14.89
2018-05-07T04:17:41.385Z,14.86
2018-05-07T04:18:07.543Z,14.84
2018-05-07T04:18:33.677Z,14.82
2018-05-07T04:18:59.819Z,14.84
2018-05-07T04:19:25.968Z,14.79
2018-05-07T04:19:52.107Z,14.91
2018-05-07T04:20:18.242Z,14.82
2018-05-07T04:20:44.380Z,14.84
2018-05-07T04:21:10.521Z,14.86
2018-05-07T04:21:36.660Z,14.84
2018-05-07T04:22:02.796Z,14.7
2018-05-07T04:22:28.933Z,14.77
2018-05-07T04:22:55.071Z,14.78
2018-05-07T04:23:21.210Z,14.82
2018-05-07T04:23:47.369Z,14.79
2018-05-07T04:24:13.530Z,14.78
2018-05-07T04:24:39.672Z,14.77
2018-05-07T04:25:05.803Z,14.68
2018-05-07T04:25:31.939Z,14.72
2018-05-07T04:25:58.078Z,14.65
2018-05-07T04:26:24.215Z,14.69
2018-05-07T04:26:50.354Z,14.65
2018-05-07T04:27:16.498Z,14.72
2018-05-07T04:27:42.628Z,14.69
2018-05-07T04:28:08.763Z,14.68
2018-05-07T04:28:34.931Z,14.68
2018-05-07T04:29:01.067Z,14.65
2018-05-07T04:29:27.204Z,14.85
2018-05-07T04:29:53.338Z,14.78
2018-05-07T04:30:19.480Z,14.66
2018-05-07T04:30:45.610Z,14.72
2018-05-07T04:31:11.752Z,14.77
2018-05-07T04:31:37.888Z,14.79
2018-05-07T04:32:04.028Z,14.73
2018-05-07T04:32:30.167Z,14.73
2018-05-07T04:32:56.310Z,14.73
2018-05-07T04:33:22.475Z,14.81
2018-05-07T04:33:48.672Z,14.81
2018-05-07T04:34:14.740Z,14.78
2018-05-07T04:34:40.881Z,14.72
2018-05-07T04:35:07.053Z,14.73
2018-05-07T04:35:33.187Z,14.78
2018-05-07T04:35:59.322Z,14.72
2018-05-07T04:36:25.485Z,14.81
2018-05-07T04:36:51.624Z,14.73
2018-05-07T04:37:17.761Z,14.77
2018-05-07T04:37:43.921Z,14.81
2018-05-07T04:38:10.061Z,14.78
2018-05-07T04:38:36.192Z,14.77
2018-05-07T04:39:02.338Z,14.79
2018-05-07T04:39:28.483Z,14.78
2018-05-07T04:39:54.621Z,14.72
2018-05-07T04:40:20.762Z,14.81
2018-05-07T04:40:46.906Z,14.77
2018-05-07T04:41:13.038Z,14.78
2018-05-07T04:41:39.203Z,14.85
2018-05-07T04:42:05.350Z,14.73
2018-05-07T04:42:31.491Z,14.7
2018-05-07T04:42:57.636Z,14.78
2018-05-07T04:43:23.792Z,14.72
2018-05-07T04:43:49.939Z,14.84
2018-05-07T04:44:16.080Z,14.84
2018-05-07T04:44:42.215Z,14.81
2018-05-07T04:45:08.356Z,14.89
2018-05-07T04:45:34.499Z,14.86
2018-05-07T04:46:00.670Z,14.88
2018-05-07T04:46:26.822Z,14.89
2018-05-07T04:46:52.962Z,14.88
2018-05-07T04:47:19.104Z,14.78
2018-05-07T04:47:45.245Z,14.92
2018-05-07T04:48:11.380Z,14.82
2018-05-07T04:48:37.522Z,14.78
2018-05-07T04:49:03.664Z,14.73
2018-05-07T04:49:29.800Z,14.81
2018-05-07T04:49:55.932Z,14.82
2018-05-07T04:50:22.103Z,14.85
2018-05-07T04:50:48.240Z,14.92
2018-05-07T04:51:14.399Z,14.89
2018-05-07T04:51:40.540Z,14.91
2018-05-07T04:52:06.739Z,14.88
2018-05-07T04:52:32.866Z,14.91
2018-05-07T04:52:59.007Z,14.84
2018-05-07T04:53:25.145Z,15
2018-05-07T04:53:51.285Z,15.03
2018-05-07T04:54:17.427Z,15
2018-05-07T04:54:43.560Z,14.97
2018-05-07T04:55:09.801Z,15
2018-05-07T04:55:35.881Z,15.02
2018-05-07T04:56:02.026Z,15.04
2018-05-07T04:56:28.163Z,15.04
2018-05-07T04:56:54.333Z,15.04
2018-05-07T04:57:20.463Z,14.99
2018-05-07T04:57:46.597Z,15.07
2018-05-07T04:58:12.738Z,15.09
2018-05-07T04:58:38.872Z,15.06
2018-05-07T04:59:05.015Z,15.07
2018-05-07T04:59:31.180Z,15.04
2018-05-07T04:59:57.359Z,15.04
2018-05-07T05:00:23.493Z,15.04
2018-05-07T05:00:49.635Z,15.06
2018-05-07T05:01:15.803Z,15.09
2018-05-07T05:01:41.945Z,15.11
2018-05-07T05:02:08.077Z,15.25
2018-05-07T05:02:34.244Z,15.22
2018-05-07T05:03:00.381Z,15.27
2018-05-07T05:03:26.522Z,15.37
2018-05-07T05:03:52.665Z,15.33
2018-05-07T05:04:18.805Z,15.36
2018-05-07T05:04:44.946Z,15.25
2018-05-07T05:05:11.084Z,15.33
2018-05-07T05:05:37.238Z,15.31
2018-05-07T05:06:03.397Z,15.28
2018-05-07T05:06:29.564Z,15.47
2018-05-07T05:06:55.696Z,15.4
2018-05-07T05:07:21.870Z,15.43
2018-05-07T05:07:48.008Z,15.33
2018-05-07T05:08:14.137Z,15.35
2018-05-07T05:08:40.274Z,15.35
2018-05-07T05:09:06.440Z,15.4
2018-05-07T05:09:32.578Z,15.42
2018-05-07T05:09:58.713Z,15.37
2018-05-07T05:10:24.849Z,15.39
2018-05-07T05:10:50.993Z,15.47
2018-05-07T05:11:17.133Z,15.46
2018-05-07T05:11:43.270Z,15.44
2018-05-07T05:12:09.412Z,15.39
2018-05-07T05:12:35.550Z,15.35
2018-05-07T05:13:01.718Z,15.42
2018-05-07T05:13:27.855Z,15.35
2018-05-07T05:13:53.990Z,15.46
2018-05-07T05:14:20.133Z,15.44
2018-05-07T05:14:46.271Z,15.57
2018-05-07T05:15:12.408Z,15.54
2018-05-07T05:15:38.545Z,15.55
2018-05-07T05:16:04.678Z,15.57
2018-05-07T05:16:30.832Z,15.61
2018-05-07T05:16:56.995Z,15.65
2018-05-07T05:17:23.144Z,15.64
2018-05-07T05:17:49.286Z,15.65
2018-05-07T05:18:15.488Z,15.59
2018-05-07T05:18:41.565Z,15.73
2018-05-07T05:19:07.726Z,15.7
2018-05-07T05:19:33.867Z,15.73
2018-05-07T05:20:00.012Z,15.65
2018-05-07T05:20:26.172Z,15.72
2018-05-07T05:20:52.325Z,15.73
2018-05-07T05:21:18.514Z,15.67
2018-05-07T05:21:44.677Z,15.77
2018-05-07T05:22:10.813Z,15.72
2018-05-07T05:22:36.975Z,15.73
2018-05-07T05:23:03.139Z,15.73
2018-05-07T05:23:29.304Z,15.82
2018-05-07T05:23:55.468Z,15.82
2018-05-07T05:24:21.607Z,15.82
2018-05-07T05:24:47.772Z,15.7
2018-05-07T05:25:13.916Z,15.94
2018-05-07T05:25:40.055Z,15.75
2018-05-07T05:26:06.191Z,15.86
2018-05-07T05:26:32.353Z,15.82
2018-05-07T05:26:58.516Z,15.86
2018-05-07T05:27:24.684Z,15.82
2018-05-07T05:27:50.815Z,15.84
2018-05-07T05:28:16.946Z,15.84
2018-05-07T05:28:43.091Z,15.82
2018-05-07T05:29:09.224Z,15.77
2018-05-07T05:29:35.385Z,15.77
2018-05-07T05:30:01.527Z,15.82
2018-05-07T05:30:27.667Z,15.84
2018-05-07T05:30:53.807Z,15.86
2018-05-07T05:31:19.975Z,15.9
2018-05-07T05:31:46.116Z,15.83
2018-05-07T05:32:12.297Z,15.91
2018-05-07T05:32:38.439Z,15.97
2018-05-07T05:33:04.575Z,15.98
2018-05-07T05:33:30.710Z,15.9
2018-05-07T05:33:56.848Z,15.84
2018-05-07T05:34:22.987Z,15.82
2018-05-07T05:34:49.159Z,15.92
2018-05-07T05:35:15.319Z,15.84
2018-05-07T05:35:41.460Z,15.94
2018-05-07T05:36:07.601Z,16.01
2018-05-07T05:36:33.758Z,16.04
2018-05-07T05:36:59.900Z,15.97
2018-05-07T05:37:26.036Z,16.04
2018-05-07T05:37:52.175Z,16.01
2018-05-07T05:38:18.335Z,16.01